Time;durP1;ratioP1;P1;durP2;ratioP2;P2;SDS_P1;SDS_P2;PMS_P1;PMS_P2;Temp;Humidity;BMP_temperature;BMP_pressure;BME280_temperature;BME280_humidity;BME280_pressure;Samples;Min_cycle;Max_cycle;Signal;HPM_P1;HPM_P2
2022/03/14 00:01:37;;;;;;;9.50;6.97;;;-2.70;70.90;-3.10;97511.00;;;;5048080;28;20431;-86
2022/03/14 00:04:27;;;;;;;7.83;5.43;;;-2.70;71.20;-3.30;97509.00;;;;5050396;28;20436;-85
2022/03/14 00:07:16;;;;;;;12.87;8.00;;;-2.80;71.60;-2.90;97518.00;;;;5040990;28;20471;-85
2022/03/14 00:10:06;;;;;;;12.60;7.50;;;-2.00;72.10;-2.60;97516.00;;;;5049227;28;20438;-85
2022/03/14 00:12:58;;;;;;;8.60;7.03;;;-2.80;71.60;-3.20;97503.00;;;;5045654;28;20444;-86
2022/03/14 00:15:48;;;;;;;9.43;7.53;;;-2.80;71.40;-3.00;97503.00;;;;5050211;28;20428;-85
2022/03/14 00:18:37;;;;;;;7.57;5.80;;;-2.90;71.60;-3.00;97502.00;;;;5051280;28;20467;-85
2022/03/14 00:21:30;;;;;;;11.73;6.67;;;-2.90;72.00;-2.90;97505.00;;;;5045692;28;20431;-85
2022/03/14 00:24:18;;;;;;;18.67;7.70;;;-2.90;71.90;-2.90;97517.00;;;;5046999;28;20497;-85
2022/03/14 00:27:07;;;;;;;6.77;5.47;;;-2.90;71.80;-2.50;97516.00;;;;5048424;28;20865;-85
2022/03/14 00:29:56;;;;;;;6.47;5.70;;;-2.80;71.70;-2.60;97518.00;;;;5049243;28;20435;-85
2022/03/14 00:32:47;;;;;;;8.63;4.50;;;-2.40;71.60;-2.70;97511.00;;;;5031302;28;20444;-85
2022/03/14 00:35:36;;;;;;;9.57;6.73;;;-2.70;72.10;-3.00;97504.00;;;;5066294;23;21248;-65
2022/03/14 00:38:25;;;;;;;9.37;6.83;;;-2.80;71.70;-3.50;97505.00;;;;5063076;28;20426;-66
2022/03/14 00:41:15;;;;;;;9.13;7.00;;;-2.90;72.20;-3.50;97513.00;;;;5071262;28;20959;-65
2022/03/14 00:44:04;;;;;;;8.83;6.00;;;-3.10;72.70;-3.30;97495.00;;;;5057196;28;20430;-65
2022/03/14 00:46:54;;;;;;;7.63;5.90;;;-3.20;73.10;-3.30;97511.00;;;;5057348;28;20479;-65
2022/03/14 00:49:44;;;;;;;6.97;6.23;;;-3.30;73.30;-3.30;97510.00;;;;5057970;28;20415;-65
2022/03/14 00:52:33;;;;;;;7.73;6.37;;;-3.30;74.00;-3.70;97504.00;;;;5046380;28;20452;-65
2022/03/14 00:55:22;;;;;;;6.83;5.60;;;-3.20;74.60;-3.80;97496.00;;;;5050486;28;20423;-65
2022/03/14 00:58:12;;;;;;;9.77;6.53;;;-3.40;74.90;-3.30;97503.00;;;;5051012;28;20470;-66
2022/03/14 01:01:01;;;;;;;10.13;6.57;;;-3.30;74.80;-3.00;97521.00;;;;5051131;28;20415;-65
2022/03/14 01:03:50;;;;;;;8.30;6.00;;;-3.20;74.60;-3.20;97518.00;;;;5059450;28;20434;-65
2022/03/14 01:06:40;;;;;;;5.73;5.03;;;-3.20;74.60;-3.50;97516.00;;;;5051581;28;20528;-64
2022/03/14 01:09:29;;;;;;;9.13;6.77;;;-3.20;74.60;-3.90;97501.00;;;;5047507;28;20427;-65
2022/03/14 01:12:18;;;;;;;9.47;6.10;;;-3.30;75.40;-3.70;97502.00;;;;5048397;28;20812;-65
2022/03/14 01:15:09;;;;;;;9.17;6.57;;;-3.40;75.70;-3.60;97502.00;;;;5048741;28;20969;-65
2022/03/14 01:17:58;;;;;;;10.13;5.93;;;-3.40;75.80;-3.50;97513.00;;;;5048735;28;20838;-65
2022/03/14 01:20:47;;;;;;;9.10;6.43;;;-3.40;76.00;-3.50;97514.00;;;;5055848;28;20427;-65
2022/03/14 01:23:37;;;;;;;8.87;6.67;;;-3.40;75.90;-3.60;97509.00;;;;5050402;28;20423;-65
2022/03/14 01:26:26;;;;;;;10.77;7.50;;;-3.40;76.80;-4.00;97503.00;;;;5054384;28;20436;-65
2022/03/14 01:29:17;;;;;;;7.63;6.93;;;-3.50;76.60;-4.00;97498.00;;;;5050842;28;20420;-65
2022/03/14 01:32:09;;;;;;;7.83;5.50;;;-3.60;77.50;-4.00;97501.00;;;;5051920;28;20442;-65
2022/03/14 01:34:58;;;;;;;7.50;5.67;;;-3.70;78.10;-4.80;97492.00;;;;5051961;28;20436;-65
2022/03/14 01:37:49;;;;;;;8.33;6.57;;;-3.90;78.70;-4.40;97487.00;;;;5050432;28;20470;-65
2022/03/14 01:40:39;;;;;;;8.23;6.30;;;-4.00;79.90;-4.40;97479.00;;;;5061984;28;20422;-65
2022/03/14 01:43:28;;;;;;;7.77;5.60;;;-4.00;80.30;-4.60;97487.00;;;;5056575;28;20450;-65
2022/03/14 01:46:18;;;;;;;10.50;6.50;;;-4.20;80.90;-4.20;97498.00;;;;5052711;28;20424;-65
2022/03/14 01:49:07;;;;;;;11.73;7.63;;;-4.10;81.20;-3.80;97494.00;;;;5051519;28;20509;-65
2022/03/14 01:51:57;;;;;;;6.63;5.47;;;-4.00;80.70;-3.70;97495.00;;;;5058709;28;20459;-64
2022/03/14 01:54:46;;;;;;;7.53;6.00;;;-3.90;80.50;-3.90;97496.00;;;;5049929;28;20984;-65
2022/03/14 01:57:37;;;;;;;8.63;5.80;;;-3.90;80.20;-4.00;97482.00;;;;5058892;28;20461;-65
2022/03/14 02:00:26;;;;;;;8.43;6.80;;;-3.80;80.30;-3.90;97484.00;;;;5049541;28;20427;-65
2022/03/14 02:03:14;;;;;;;11.97;6.37;;;-3.60;80.70;-3.90;97482.00;;;;5052827;28;20443;-65
2022/03/14 02:06:03;;;;;;;9.77;5.93;;;-3.90;80.50;-4.00;97490.00;;;;5064041;28;20484;-65
2022/03/14 02:08:52;;;;;;;7.23;5.70;;;-3.90;80.50;-4.50;97476.00;;;;5070571;28;20439;-65
2022/03/14 02:11:52;;;;;;;10.20;5.00;;;-4.00;80.50;-4.40;97480.00;;;;5063985;28;20451;-65
2022/03/14 02:14:43;;;;;;;8.37;6.17;;;-4.10;81.40;-4.30;97478.00;;;;5053453;28;20436;-65
2022/03/14 02:17:32;;;;;;;7.10;5.47;;;-4.10;81.60;-4.30;97496.00;;;;5054281;28;20467;-65
2022/03/14 02:20:22;;;;;;;8.53;6.90;;;-4.20;81.70;-4.20;97491.00;;;;5048220;28;20549;-65
2022/03/14 02:23:11;;;;;;;8.40;5.73;;;-4.20;82.10;-4.00;97492.00;;;;5053513;28;21474;-65
2022/03/14 02:26:00;;;;;;;7.57;5.83;;;-4.10;82.20;-4.30;97493.00;;;;5064392;28;20999;-65
2022/03/14 02:28:50;;;;;;;7.17;5.43;;;-4.10;82.10;-4.40;97493.00;;;;5062004;28;20423;-65
2022/03/14 02:31:39;;;;;;;12.50;6.83;;;-4.10;82.20;-4.40;97478.00;;;;5060771;28;20447;-66
2022/03/14 02:34:28;;;;;;;4.80;3.33;;;-4.10;82.80;-4.80;97475.00;;;;5053216;28;20782;-65
2022/03/14 02:37:18;;;;;;;7.80;5.33;;;-4.20;83.50;-5.00;97490.00;;;;5056315;28;20462;-65
2022/03/14 02:40:08;;;;;;;9.03;6.67;;;-4.30;84.10;-4.60;97477.00;;;;5067630;28;20794;-65
2022/03/14 02:42:57;;;;;;;8.83;6.60;;;-4.30;84.50;-4.20;97484.00;;;;5060365;28;20819;-64
2022/03/14 02:45:47;;;;;;;6.03;5.00;;;-4.30;84.30;-4.10;97482.00;;;;5053688;28;20428;-65
2022/03/14 02:48:38;;;;;;;9.97;5.53;;;-4.20;84.20;-4.50;97474.00;;;;5053209;28;20458;-65
2022/03/14 02:51:27;;;;;;;7.50;4.97;;;-4.20;84.30;-5.00;97481.00;;;;5051811;28;20423;-65
2022/03/14 02:54:17;;;;;;;10.70;5.78;;;-4.40;84.70;-5.30;97477.00;;;;5061700;28;20422;-65
2022/03/14 02:57:07;;;;;;;6.70;4.60;;;-4.50;85.80;-5.10;97479.00;;;;5068117;28;20199;-63
2022/03/14 02:59:56;;;;;;;12.05;6.80;;;-4.60;86.50;-5.20;97480.00;;;;5054390;28;20432;-65
2022/03/14 03:02:45;;;;;;;5.97;5.18;;;-4.60;87.00;-4.90;97483.00;;;;5053133;28;20587;-65
2022/03/14 03:05:35;;;;;;;3.87;3.53;;;-4.60;87.40;-4.90;97476.00;;;;5054250;28;20201;-65
2022/03/14 03:08:24;;;;;;;6.97;6.28;;;-4.60;87.70;-4.80;97486.00;;;;5059786;28;20422;-65
2022/03/14 03:11:15;;;;;;;8.73;7.10;;;-4.60;87.70;-4.80;97490.00;;;;5052768;28;20675;-65
2022/03/14 03:14:04;;;;;;;6.18;5.20;;;-4.50;87.50;-5.00;97491.00;;;;5053516;28;20781;-65
2022/03/14 03:16:53;;;;;;;10.10;6.43;;;-4.50;87.60;-5.10;97494.00;;;;5049983;28;20212;-65
2022/03/14 03:19:42;;;;;;;14.53;7.60;;;-4.60;88.10;-4.60;97499.00;;;;5049339;28;20435;-65
2022/03/14 03:22:31;;;;;;;14.70;6.77;;;-4.60;88.20;-4.50;97498.00;;;;5052555;28;20806;-64
2022/03/14 03:25:20;;;;;;;8.97;6.47;;;-4.60;88.20;-4.60;97504.00;;;;5054803;28;20428;-65
2022/03/14 03:28:10;;;;;;;7.23;5.40;;;-4.50;87.90;-4.70;97518.00;;;;5053603;28;20446;-64
2022/03/14 03:30:59;;;;;;;15.47;6.23;;;-4.50;87.90;-4.60;97502.00;;;;5053408;28;20425;-65
2022/03/14 03:33:49;;;;;;;7.07;5.37;;;-4.50;87.90;-4.50;97512.00;;;;5053004;28;20800;-65
2022/03/14 03:36:38;;;;;;;7.27;6.57;;;-4.40;88.20;-4.60;97510.00;;;;5068051;28;20441;-65
2022/03/14 03:39:27;;;;;;;6.13;5.40;;;-4.40;88.20;-4.40;97517.00;;;;5062564;28;20968;-65
2022/03/14 03:42:15;;;;;;;7.27;6.10;;;-4.30;87.90;-4.60;97515.00;;;;5060096;28;20445;-65
2022/03/14 03:45:08;;;;;;;8.25;6.70;;;-4.30;87.50;-5.30;97520.00;;;;5057834;28;20423;-65
2022/03/14 03:47:57;;;;;;;10.17;5.53;;;-4.40;88.00;-4.70;97522.00;;;;5056757;28;20205;-65
2022/03/14 03:50:46;;;;;;;9.43;6.60;;;-4.50;88.70;-4.50;97526.00;;;;5053449;28;20431;-67
2022/03/14 03:53:35;;;;;;;5.70;4.93;;;-4.50;88.70;-4.90;97525.00;;;;5052918;28;20442;-66
2022/03/14 03:56:24;;;;;;;8.50;6.87;;;-4.50;88.90;-5.40;97512.00;;;;5054509;28;20963;-67
2022/03/14 03:59:13;;;;;;;7.47;6.38;;;-4.60;89.60;-5.10;97523.00;;;;5052939;28;20455;-67
2022/03/14 04:02:04;;;;;;;5.13;4.63;;;-4.70;90.10;-5.30;97528.00;;;;5052423;28;20612;-67
2022/03/14 04:04:53;;;;;;;2.87;2.47;;;-4.70;90.30;-5.70;97522.00;;;;5050573;28;20692;-66
2022/03/14 04:07:43;;;;;;;6.13;5.15;;;-4.80;90.60;-5.50;97528.00;;;;5051066;28;20958;-67
2022/03/14 04:10:32;;;;;;;7.07;4.97;;;-4.90;91.00;-5.40;97534.00;;;;5051491;28;20197;-67
2022/03/14 04:13:22;;;;;;;3.55;3.25;;;-4.90;91.30;-5.60;97539.00;;;;5055415;28;20216;-67
2022/03/14 04:16:11;;;;;;;8.75;4.55;;;-4.90;91.50;-6.10;97533.00;;;;5052110;28;20204;-66
2022/03/14 04:19:01;;;;;;;6.13;5.32;;;-5.10;91.90;-5.60;97534.00;;;;5062239;28;20233;-67
2022/03/14 04:21:52;;;;;;;7.43;5.03;;;-4.90;92.50;-5.00;97539.00;;;;5049875;28;20295;-67
2022/03/14 04:24:41;;;;;;;10.68;6.88;;;-5.10;92.30;-4.70;97545.00;;;;5051340;28;20284;-67
2022/03/14 04:27:30;;;;;;;7.28;5.53;;;-4.90;92.10;-4.70;97545.00;;;;5049776;28;20193;-67
2022/03/14 04:30:18;;;;;;;7.95;5.88;;;-4.70;91.80;-5.50;97547.00;;;;5049872;28;20687;-67
2022/03/14 04:33:08;;;;;;;16.38;6.13;;;-4.80;91.90;-5.00;97546.00;;;;5050741;28;20224;-67
2022/03/14 04:35:59;;;;;;;9.95;6.63;;;-4.80;92.00;-4.70;97553.00;;;;5064316;28;20216;-67
2022/03/14 04:38:48;;;;;;;8.87;6.33;;;-4.70;92.00;-4.60;97562.00;;;;5057227;28;20215;-67
2022/03/14 04:41:37;;;;;;;11.17;7.30;;;-4.70;91.80;-4.70;97553.00;;;;5061836;28;20446;-67
2022/03/14 04:44:26;;;;;;;8.60;5.87;;;-4.60;91.60;-4.90;97537.00;;;;5056973;28;20437;-67
2022/03/14 04:47:16;;;;;;;8.57;7.20;;;-4.60;91.50;-4.80;97551.00;;;;5051194;28;20808;-67
2022/03/14 04:50:06;;;;;;;9.23;6.18;;;-4.60;91.40;-5.00;97550.00;;;;5050147;28;20594;-66
2022/03/14 04:52:57;;;;;;;7.38;4.80;;;-4.60;91.30;-5.50;97558.00;;;;5049839;28;20225;-67
2022/03/14 04:55:46;;;;;;;3.00;2.70;;;-4.70;91.70;-6.20;97545.00;;;;5060178;28;20215;-67
2022/03/14 04:58:35;;;;;;;4.07;3.73;;;-4.90;92.30;-5.90;97546.00;;;;5069679;28;20220;-67
2022/03/14 05:01:24;;;;;;;5.03;4.47;;;-5.10;93.00;-5.20;97567.00;;;;5053486;28;20431;-67
2022/03/14 05:04:13;;;;;;;6.50;5.30;;;-5.10;93.30;-4.90;97560.00;;;;5071553;28;20301;-67
2022/03/14 05:07:01;;;;;;;4.97;3.80;;;-5.00;93.20;-5.30;97562.00;;;;5062013;28;20434;-69
2022/03/14 05:09:52;;;;;;;8.55;7.03;;;-5.00;93.00;-5.40;97562.00;;;;5051182;28;20427;-68
2022/03/14 05:12:40;;;;;;;7.47;6.00;;;-5.00;93.30;-5.10;97573.00;;;;5062576;28;20224;-67
2022/03/14 05:15:30;;;;;;;9.63;6.43;;;-4.90;93.20;-4.60;97573.00;;;;5049599;28;20454;-67
2022/03/14 05:18:19;;;;;;;7.77;6.53;;;-4.90;93.30;-4.60;97589.00;;;;5059128;28;20726;-67
2022/03/14 05:21:08;;;;;;;10.68;6.82;;;-4.70;92.90;-5.00;97582.00;;;;5066082;28;20442;-67
2022/03/14 05:23:57;;;;;;;9.23;6.00;;;-4.70;92.70;-4.80;97590.00;;;;5064252;28;20200;-67
2022/03/14 05:26:47;;;;;;;10.73;6.07;;;-4.60;92.80;-4.80;97597.00;;;;5061267;28;20790;-67
2022/03/14 05:29:36;;;;;;;9.03;6.17;;;-4.60;92.60;-4.70;97597.00;;;;5048059;28;20434;-66
2022/03/14 05:32:25;;;;;;;8.63;7.67;;;-4.60;92.90;-4.60;97606.00;;;;5049026;28;20447;-66
2022/03/14 05:35:15;;;;;;;9.80;6.40;;;-4.60;92.80;-4.80;97610.00;;;;5061791;28;20446;-67
2022/03/14 05:38:04;;;;;;;10.00;6.87;;;-4.60;92.80;-4.80;97606.00;;;;5063111;28;20493;-66
2022/03/14 05:40:53;;;;;;;7.90;5.73;;;-4.60;92.90;-4.60;97619.00;;;;5065456;28;20483;-67
2022/03/14 05:43:44;;;;;;;10.67;7.53;;;-4.60;92.90;-5.00;97616.00;;;;5068830;28;20850;-67
2022/03/14 05:46:33;;;;;;;8.13;6.35;;;-4.60;93.00;-5.00;97618.00;;;;5053745;28;20966;-67
2022/03/14 05:49:21;;;;;;;8.27;6.87;;;-4.60;93.30;-4.70;97618.00;;;;5062886;28;20200;-67
2022/03/14 05:52:11;;;;;;;8.33;6.93;;;-4.60;93.30;-4.80;97630.00;;;;5079019;28;20450;-67
2022/03/14 05:55:00;;;;;;;6.20;5.03;;;-4.60;93.30;-4.80;97617.00;;;;5066349;28;20426;-67
2022/03/14 05:57:49;;;;;;;5.68;4.80;;;-4.50;93.40;-5.00;97620.00;;;;5069360;28;20418;-66
2022/03/14 06:00:39;;;;;;;10.15;5.55;;;-4.50;93.60;-5.10;97618.00;;;;5066455;28;20587;-67
2022/03/14 06:03:28;;;;;;;12.20;5.07;;;-4.60;93.70;-5.00;97622.00;;;;5056135;28;20224;-67
2022/03/14 06:06:17;;;;;;;8.23;5.05;;;-4.60;94.10;-4.70;97633.00;;;;5074111;28;20434;-67
2022/03/14 06:09:06;;;;;;;7.50;4.82;;;-4.50;94.10;-4.50;97633.00;;;;5073712;28;20346;-67
2022/03/14 06:11:55;;;;;;;9.37;6.80;;;-4.50;94.10;-4.40;97643.00;;;;5063437;28;20552;-67
2022/03/14 06:14:43;;;;;;;7.15;5.07;;;-4.40;94.00;-4.60;97632.00;;;;5074963;28;20426;-67
2022/03/14 06:17:33;;;;;;;8.73;6.57;;;-4.30;94.10;-4.20;97645.00;;;;5061396;28;20211;-67
2022/03/14 06:20:22;;;;;;;6.23;4.57;;;-4.20;93.70;-4.00;97656.00;;;;5060626;28;20989;-67
2022/03/14 06:23:11;;;;;;;10.93;7.13;;;-4.10;93.60;-4.10;97662.00;;;;5057526;28;20443;-67
2022/03/14 06:26:00;;;;;;;10.70;6.90;;;-4.00;93.20;-4.00;97656.00;;;;5061305;28;20793;-67
2022/03/14 06:28:49;;;;;;;16.80;6.67;;;-3.90;93.00;-4.00;97663.00;;;;5058850;28;20454;-68
2022/03/14 06:31:38;;;;;;;5.60;3.80;;;-3.80;93.00;-3.70;97661.00;;;;5067129;28;20454;-67
2022/03/14 06:34:28;;;;;;;7.00;5.73;;;-3.60;93.00;-3.50;97671.00;;;;5078322;28;20471;-67
2022/03/14 06:37:18;;;;;;;7.07;5.87;;;-3.60;92.60;-3.40;97674.00;;;;5063194;28;20443;-67
2022/03/14 06:40:07;;;;;;;7.10;5.33;;;-3.40;92.40;-3.40;97684.00;;;;5068512;28;20458;-68
2022/03/14 06:42:57;;;;;;;7.83;5.80;;;-3.40;92.30;-3.40;97676.00;;;;5076111;28;20845;-67
2022/03/14 06:45:47;;;;;;;10.93;7.40;;;-3.30;92.30;-3.60;97694.00;;;;5067764;28;20443;-67
2022/03/14 06:48:39;;;;;;;28.57;14.53;;;-3.30;92.70;-3.60;97694.00;;;;5060798;28;20428;-68
2022/03/14 06:51:29;;;;;;;8.57;5.90;;;-3.30;92.90;-3.60;97692.00;;;;5066422;28;20460;-67
2022/03/14 06:54:18;;;;;;;7.13;6.07;;;-3.20;92.70;-3.30;97691.00;;;;5059396;28;20427;-67
2022/03/14 06:57:07;;;;;;;12.97;7.00;;;-3.10;92.50;-2.80;97690.00;;;;5076127;28;20437;-67
2022/03/14 06:59:56;;;;;;;7.13;4.23;;;-3.00;92.50;-2.90;97711.00;;;;5071037;28;20961;-67
2022/03/14 07:02:45;;;;;;;3.83;3.50;;;-2.80;91.90;-2.70;97711.00;;;;5057500;28;20455;-68
2022/03/14 07:05:34;;;;;;;14.57;6.67;;;-2.70;91.70;-2.50;97705.00;;;;5051689;28;20431;-67
2022/03/14 07:08:24;;;;;;;9.40;7.00;;;-2.50;91.70;-2.10;97715.00;;;;5059281;28;20434;-67
2022/03/14 07:11:12;;;;;;;10.90;6.77;;;-2.40;90.70;-1.60;97729.00;;;;5074618;28;20429;-67
2022/03/14 07:14:01;;;;;;;8.40;6.80;;;-2.20;90.50;-1.40;97723.00;;;;5074926;28;20421;-68
2022/03/14 07:16:50;;;;;;;10.13;6.43;;;-2.00;90.40;-1.40;97729.00;;;;5074871;28;21022;-67
2022/03/14 07:19:42;;;;;;;16.80;8.73;;;-1.80;90.30;-1.40;97752.00;;;;5079288;28;20457;-67
2022/03/14 07:22:31;;;;;;;8.70;6.43;;;-1.60;89.50;-1.30;97745.00;;;;5060066;28;20455;-67
2022/03/14 07:25:24;;;;;;;11.97;7.50;;;-1.50;88.10;-1.10;97757.00;;;;5053247;28;20418;-67
2022/03/14 07:28:13;;;;;;;10.13;6.03;;;-1.40;87.50;-0.90;97748.00;;;;5051044;28;20428;-67
2022/03/14 07:31:02;;;;;;;6.07;5.37;;;-1.20;86.80;-0.70;97757.00;;;;5075270;28;20454;-68
2022/03/14 07:33:51;;;;;;;12.93;6.27;;;-1.10;86.00;-0.50;97772.00;;;;5078554;28;20422;-68
2022/03/14 07:36:40;;;;;;;9.87;5.97;;;-0.90;85.40;-0.30;97757.00;;;;5078478;28;20431;-67
2022/03/14 07:39:30;;;;;;;8.03;6.40;;;-0.70;84.60;0.10;97775.00;;;;5082453;28;20430;-67
2022/03/14 07:42:20;;;;;;;8.30;6.47;;;-0.50;84.60;0.30;97771.00;;;;5075339;28;20441;-68
2022/03/14 07:45:10;;;;;;;6.80;6.17;;;-0.30;83.90;0.60;97779.00;;;;5071784;28;20410;-66
2022/03/14 07:47:59;;;;;;;8.37;6.20;;;-0.10;82.80;0.40;97789.00;;;;5079753;28;20419;-67
2022/03/14 07:50:48;;;;;;;11.20;6.90;;;0.10;81.80;0.60;97784.00;;;;5077544;28;20423;-68
2022/03/14 07:53:39;;;;;;;10.93;8.33;;;0.30;80.20;0.90;97785.00;;;;5073398;28;20424;-67
2022/03/14 07:56:27;;;;;;;18.87;8.67;;;0.40;80.90;1.20;97799.00;;;;5050286;28;20434;-67
2022/03/14 07:59:17;;;;;;;14.00;8.17;;;0.60;78.50;1.70;97789.00;;;;5051844;28;20423;-68
2022/03/14 08:02:07;;;;;;;10.50;8.73;;;0.80;78.70;2.20;97788.00;;;;5051337;28;20966;-67
2022/03/14 08:04:55;;;;;;;9.87;7.93;;;1.10;78.70;2.70;97797.00;;;;5063124;28;20427;-67
2022/03/14 08:07:47;;;;;;;13.47;8.97;;;1.30;78.50;2.90;97792.00;;;;5050143;28;20474;-67
2022/03/14 08:10:36;;;;;;;11.63;7.37;;;1.70;77.80;3.40;97804.00;;;;5051299;28;20424;-68
2022/03/14 08:13:26;;;;;;;13.90;9.07;;;2.10;75.70;3.80;97804.00;;;;5058821;28;20840;-68
2022/03/14 08:16:16;;;;;;;12.63;8.90;;;2.40;74.70;4.00;97800.00;;;;5070450;28;20825;-67
2022/03/14 08:19:06;;;;;;;13.13;8.50;;;2.70;73.40;4.20;97791.00;;;;5070454;28;20431;-68
2022/03/14 08:21:56;;;;;;;16.40;9.00;;;3.00;70.50;4.50;97793.00;;;;5065584;28;20474;-68
2022/03/14 08:24:45;;;;;;;11.87;7.83;;;3.30;69.90;4.70;97802.00;;;;5068493;28;20418;-68
2022/03/14 08:27:34;;;;;;;10.43;7.50;;;3.50;69.20;4.90;97794.00;;;;5050945;28;20808;-68
2022/03/14 08:30:23;;;;;;;11.40;8.33;;;3.70;67.50;4.80;97793.00;;;;5049877;28;20428;-68
2022/03/14 08:33:13;;;;;;;11.10;8.37;;;4.00;66.60;5.10;97807.00;;;;5051071;28;20676;-68
2022/03/14 08:36:04;;;;;;;13.90;8.67;;;4.20;64.20;5.50;97800.00;;;;5058370;28;20972;-68
2022/03/14 08:38:53;;;;;;;15.63;8.80;;;4.40;64.20;5.80;97813.00;;;;5066104;28;20454;-68
2022/03/14 08:41:42;;;;;;;16.47;8.00;;;4.60;64.00;5.90;97824.00;;;;5060949;28;20466;-68
2022/03/14 08:44:31;;;;;;;10.73;7.67;;;4.80;63.30;5.70;97823.00;;;;5050266;28;20426;-67
2022/03/14 08:47:20;;;;;;;13.90;7.47;;;4.90;62.30;5.70;97821.00;;;;5050050;28;20957;-68
2022/03/14 08:50:12;;;;;;;17.83;8.23;;;5.00;60.30;6.40;97825.00;;;;5047934;28;20192;-67
2022/03/14 08:53:01;;;;;;;8.23;6.87;;;5.20;61.30;6.00;97839.00;;;;5048467;28;20247;-68
2022/03/14 08:55:52;;;;;;;12.33;8.13;;;5.40;59.60;6.70;97838.00;;;;5048580;28;20672;-67
2022/03/14 08:58:40;;;;;;;8.43;6.53;;;5.60;59.40;6.90;97836.00;;;;5069043;28;20761;-67
2022/03/14 09:01:29;;;;;;;10.73;7.90;;;6.20;59.20;6.80;97833.00;;;;5048723;28;20228;-67
2022/03/14 09:04:18;;;;;;;11.20;8.10;;;5.90;59.10;7.20;97845.00;;;;5049606;28;20211;-67
2022/03/14 09:07:09;;;;;;;9.97;7.80;;;6.00;58.30;7.40;97850.00;;;;5060156;28;20276;-68
2022/03/14 09:10:03;;;;;;;8.20;6.63;;;6.20;58.20;7.60;97852.00;;;;5063774;28;20211;-68
2022/03/14 09:12:52;;;;;;;13.77;7.30;;;6.40;57.90;7.70;97849.00;;;;5056081;28;20222;-67
2022/03/14 09:15:41;;;;;;;11.33;7.93;;;6.50;57.40;8.00;97856.00;;;;5057675;28;20200;-67
2022/03/14 09:18:31;;;;;;;11.80;6.90;;;6.70;56.80;8.20;97856.00;;;;5060546;28;20210;-67
2022/03/14 09:21:20;;;;;;;8.57;7.03;;;6.90;56.80;8.50;97849.00;;;;5059861;28;20597;-67
2022/03/14 09:24:10;;;;;;;13.63;8.70;;;7.10;56.50;8.70;97855.00;;;;5062181;28;20204;-67
2022/03/14 09:27:00;;;;;;;11.67;7.87;;;7.30;56.40;8.70;97864.00;;;;5064946;28;20581;-67
2022/03/14 09:29:49;;;;;;;9.77;7.20;;;7.50;55.30;8.50;97860.00;;;;5048327;28;20208;-68
2022/03/14 09:32:38;;;;;;;8.53;6.57;;;7.70;54.70;8.00;97871.00;;;;5055811;28;20227;-67
2022/03/14 09:35:27;;;;;;;11.47;7.63;;;7.90;53.60;8.20;97877.00;;;;5063490;28;20204;-67
2022/03/14 09:38:17;;;;;;;9.40;7.13;;;7.90;52.30;9.30;97881.00;;;;5062030;28;20690;-67
2022/03/14 09:41:08;;;;;;;8.87;6.93;;;8.00;53.00;9.60;97896.00;;;;5071265;28;20235;-67
2022/03/14 09:43:59;;;;;;;13.07;7.10;;;8.20;53.30;9.90;97881.00;;;;5060226;28;20207;-68
2022/03/14 09:46:49;;;;;;;12.30;7.77;;;8.40;52.20;10.20;97870.00;;;;5048747;28;20216;-67
2022/03/14 09:49:40;;;;;;;9.27;7.13;;;8.60;52.20;10.50;97873.00;;;;5049018;28;20260;-69
2022/03/14 09:52:31;;;;;;;10.80;7.43;;;8.80;52.50;11.00;97879.00;;;;5054730;28;20721;-68
2022/03/14 09:55:20;;;;;;;11.60;7.60;;;9.10;52.40;11.00;97877.00;;;;5061161;28;20193;-68
2022/03/14 09:58:14;;;;;;;8.63;7.67;;;9.40;51.20;11.30;97885.00;;;;5063445;28;20210;-68
2022/03/14 10:01:03;;;;;;;7.60;6.53;;;9.60;50.70;11.60;97882.00;;;;5049711;28;20227;-68
2022/03/14 10:03:52;;;;;;;12.10;6.73;;;9.80;49.70;11.50;97882.00;;;;5059190;28;20200;-68
2022/03/14 10:06:41;;;;;;;8.47;6.10;;;10.00;49.30;11.80;97879.00;;;;5056034;28;20215;-68
2022/03/14 10:09:30;;;;;;;10.73;6.37;;;10.20;49.40;12.40;97881.00;;;;5064326;28;20576;-68
2022/03/14 10:12:20;;;;;;;10.67;7.40;;;10.50;49.90;12.70;97885.00;;;;5048828;28;20896;-68
2022/03/14 10:15:12;;;;;;;11.37;6.40;;;10.80;49.60;13.20;97887.00;;;;5061980;28;20210;-68
2022/03/14 10:18:02;;;;;;;9.03;6.77;;;11.10;49.90;13.50;97888.00;;;;5062375;28;20667;-68
2022/03/14 10:21:02;;;;;;;10.10;8.90;;;11.40;49.30;12.50;97889.00;;;;5063217;28;20574;-68
2022/03/14 10:23:51;;;;;;;9.93;6.97;;;11.50;46.60;13.10;97896.00;;;;5068260;28;20208;-68
2022/03/14 10:26:42;;;;;;;7.07;6.33;;;11.60;46.80;13.30;97895.00;;;;5060203;28;20193;-68
2022/03/14 10:29:32;;;;;;;11.00;7.30;;;11.80;47.00;13.60;97896.00;;;;5065159;28;20554;-68
2022/03/14 10:32:30;;;;;;;11.40;7.63;;;11.90;45.80;13.80;97909.00;;;;5056383;28;20227;-69
2022/03/14 10:35:22;;;;;;;8.30;5.67;;;12.20;46.20;14.10;97902.00;;;;5057655;28;20211;-68
2022/03/14 10:38:13;;;;;;;8.83;5.83;;;12.40;44.90;14.50;97911.00;;;;5062501;28;20226;-68
2022/03/14 10:41:15;;;;;;;7.67;6.20;;;12.60;44.60;14.90;97909.00;;;;5073472;28;20203;-68
2022/03/14 10:44:24;;;;;;;8.67;5.43;;;12.80;44.80;14.80;97908.00;;;;5062678;28;20208;-68
2022/03/14 10:47:13;;;;;;;7.70;5.97;;;13.10;43.80;15.50;97919.00;;;;5063772;28;20196;-68
2022/03/14 10:50:03;;;;;;;8.17;6.53;;;13.40;43.90;14.70;97916.00;;;;5064457;28;20204;-68
2022/03/14 10:53:06;;;;;;;7.73;6.97;;;13.60;41.90;15.50;97925.00;;;;5052630;28;20224;-68
2022/03/14 10:56:00;;;;;;;11.13;7.97;;;13.80;42.60;16.10;97918.00;;;;5063800;28;20204;-68
2022/03/14 10:58:49;;;;;;;8.73;7.07;;;14.10;42.90;15.70;97921.00;;;;5059773;28;20205;-68
2022/03/14 11:01:59;;;;;;;9.10;7.70;;;14.40;42.00;15.90;97915.00;;;;5061676;28;20224;-68
2022/03/14 11:04:52;;;;;;;9.37;8.37;;;14.70;42.50;16.20;97919.00;;;;5059609;28;20399;-67
2022/03/14 11:07:46;;;;;;;9.83;7.33;;;15.00;42.00;16.20;97912.00;;;;5072035;28;20206;-68
2022/03/14 11:10:44;;;;;;;9.30;8.27;;;15.30;41.40;16.80;97921.00;;;;5062111;28;20200;-69
2022/03/14 11:13:42;;;;;;;11.83;8.07;;;15.50;40.70;16.30;97926.00;;;;5065098;28;20220;-69
2022/03/14 11:16:39;;;;;;;8.43;7.43;;;15.80;40.40;17.10;97932.00;;;;5067343;28;20542;-68
2022/03/14 11:19:38;;;;;;;11.40;8.90;;;15.90;40.70;17.10;97921.00;;;;5062932;28;20246;-69
2022/03/14 11:22:32;;;;;;;11.93;8.97;;;16.40;41.10;17.80;97931.00;;;;5059984;28;20238;-69
2022/03/14 11:25:34;;;;;;;10.73;8.47;;;16.20;41.20;14.90;97908.00;;;;5067015;28;20204;-69
2022/03/14 11:28:27;;;;;;;11.17;8.83;;;16.10;39.60;15.80;97916.00;;;;5067430;28;20222;-69
2022/03/14 11:31:21;;;;;;;9.23;8.00;;;16.00;40.90;16.50;97919.00;;;;5071203;28;20196;-69
2022/03/14 11:34:13;;;;;;;13.10;8.80;;;15.90;41.00;17.20;97921.00;;;;5070107;28;20243;-69
2022/03/14 11:37:06;;;;;;;10.23;7.60;;;16.00;40.40;17.90;97923.00;;;;5069547;28;20207;-69
2022/03/14 11:40:02;;;;;;;11.93;9.13;;;16.30;41.10;16.50;97918.00;;;;5078214;28;20207;-69
2022/03/14 11:42:56;;;;;;;13.33;9.50;;;16.60;40.00;17.60;97922.00;;;;5050297;28;20229;-69
2022/03/14 11:45:48;;;;;;;11.83;9.90;;;16.60;40.10;17.50;97933.00;;;;5052734;28;20200;-69
2022/03/14 11:48:38;;;;;;;11.13;8.83;;;16.50;39.80;17.30;97924.00;;;;5064340;28;20215;-69
2022/03/14 11:51:38;;;;;;;16.17;8.93;;;16.70;40.00;17.50;97937.00;;;;5050556;28;20205;-68
2022/03/14 11:54:49;;;;;;;9.73;8.77;;;17.00;39.50;18.40;97926.00;;;;5050902;28;20200;-69
2022/03/14 11:57:43;;;;;;;13.57;11.93;;;17.20;39.50;17.50;97928.00;;;;5048953;28;20705;-68
2022/03/14 12:00:36;;;;;;;12.17;9.07;;;17.20;39.00;18.80;97923.00;;;;5050603;28;20680;-68
2022/03/14 12:03:37;;;;;;;10.77;9.43;;;17.40;39.50;19.60;97925.00;;;;5049623;28;20228;-68
2022/03/14 12:07:06;;;;;;;12.07;9.77;;;17.90;40.20;19.00;97936.00;;;;5051155;28;20204;-69
2022/03/14 12:09:57;;;;;;;13.50;9.63;;;18.40;38.40;19.20;97927.00;;;;5049543;28;20208;-66
2022/03/14 12:12:51;;;;;;;10.97;9.13;;;18.40;38.10;17.40;97913.00;;;;5050049;28;20232;-68
2022/03/14 12:15:42;;;;;;;12.93;10.63;;;18.50;38.00;17.40;97921.00;;;;5051216;28;20201;-68
2022/03/14 12:18:38;;;;;;;13.40;9.43;;;18.40;37.90;19.00;97924.00;;;;5059219;28;20204;-68
2022/03/14 12:21:46;;;;;;;16.70;9.40;;;18.50;38.60;18.10;97912.00;;;;5052096;28;20208;-69
2022/03/14 12:24:50;;;;;;;9.83;8.83;;;18.70;37.90;18.60;97925.00;;;;5052245;28;20572;-68
2022/03/14 12:27:40;;;;;;;12.27;10.03;;;18.80;38.40;19.40;97918.00;;;;5051219;28;20208;-68
2022/03/14 12:30:34;;;;;;;13.10;10.33;;;18.90;37.80;19.00;97931.00;;;;5049005;28;20221;-68
2022/03/14 12:33:35;;;;;;;13.17;10.20;;;18.90;37.60;19.30;97927.00;;;;5048646;28;20229;-68
2022/03/14 12:36:40;;;;;;;10.67;8.90;;;18.90;37.40;19.60;97935.00;;;;5054786;28;20208;-69
2022/03/14 12:39:29;;;;;;;12.33;9.87;;;18.90;37.90;20.00;97940.00;;;;5073692;28;20238;-69